Terminal Aerodrome Forecast
Issued by NWS Cleveland, OH

Home | Current Version | Previous Version | Text Only | Print | Product List | Glossary Off
Versions: 1 2 3 4 5 6 7 8 9 10 11 12 13 14 15 16 17 18 19 20 21 22 23

275
FTUS41 KCLE 251439 AAB
TAFCLE
TAF AMD
KCLE 251439Z 2515/2618 14010KT P6SM VCSH BKN060 OVC080
     FM251700 13012G20KT P6SM BKN070
     FM260100 14008KT P6SM BKN050
     FM261500 17011KT P6SM SCT250=

USA.gov is the U.S. government's official web portal to all federal, state and local government web resources and services.